createdAt,value
2023-03-04T00:01:17.678Z,149270.28
2023-03-04T00:03:43.510Z,149247.63
2023-03-04T00:06:09.430Z,149268.97
2023-03-04T00:08:35.338Z,149240.09
2023-03-04T00:11:01.377Z,149233.78
2023-03-04T00:13:27.320Z,149247.63
2023-03-04T00:15:53.238Z,149242.59
2023-03-04T00:18:20.379Z,149223.75
2023-03-04T00:20:46.758Z,149232.50
2023-03-04T00:23:13.320Z,149227.50
2023-03-04T00:25:39.106Z,149206.13
2023-03-04T00:28:04.910Z,149216.22
2023-03-04T00:30:30.823Z,149213.66
2023-03-04T00:32:56.826Z,149236.31
2023-03-04T00:35:22.663Z,149219.97
2023-03-04T00:37:48.573Z,149223.75
2023-03-04T00:40:14.467Z,149240.09
2023-03-04T00:42:40.395Z,149219.97
2023-03-04T00:45:06.870Z,149227.50
2023-03-04T00:47:32.645Z,149247.63
2023-03-04T00:49:58.391Z,149233.78
2023-03-04T00:52:24.241Z,149218.72
2023-03-04T00:54:50.081Z,149231.25
2023-03-04T00:57:15.919Z,149247.63
2023-03-04T00:59:43.142Z,149256.44
2023-03-04T01:02:10.094Z,149275.28
2023-03-04T01:04:36.458Z,149261.44
2023-03-04T01:07:02.286Z,149250.13
2023-03-04T01:09:28.278Z,149231.25
2023-03-04T01:11:54.085Z,149242.59
2023-03-04T01:14:20.015Z,149235.06
2023-03-04T01:16:46.206Z,149245.09
2023-03-04T01:19:12.056Z,149232.50
2023-03-04T01:21:37.861Z,149231.25
2023-03-04T01:24:04.119Z,149223.75
2023-03-04T01:26:29.922Z,149227.50
2023-03-04T01:28:55.704Z,149243.84
2023-03-04T01:31:21.595Z,149219.97
2023-03-04T01:33:47.438Z,149257.69
2023-03-04T01:36:13.204Z,149233.78
2023-03-04T01:38:38.993Z,149217.47
2023-03-04T01:41:06.680Z,149211.16
2023-03-04T01:43:35.947Z,149191.03
2023-03-04T01:46:01.984Z,149197.31
2023-03-04T01:48:36.290Z,149240.09
2023-03-04T01:51:03.932Z,149218.72
2023-03-04T01:53:30.746Z,149228.75
2023-03-04T01:56:00.735Z,149198.63
2023-03-04T01:58:30.228Z,149206.13
2023-03-04T02:00:57.121Z,149204.88
2023-03-04T02:03:24.064Z,149213.66
2023-03-04T02:05:52.121Z,149218.72
2023-03-04T02:08:20.513Z,149237.56
2023-03-04T02:10:47.151Z,149218.72
2023-03-04T02:13:13.582Z,149202.38
2023-03-04T02:15:40.201Z,149198.63
2023-03-04T02:18:19.094Z,149194.81
2023-03-04T02:21:21.739Z,149235.06
2023-03-04T02:24:14.669Z,149199.88
2023-03-04T02:26:44.691Z,149219.97
2023-03-04T02:29:12.213Z,149225.00
2023-03-04T02:31:46.712Z,149222.47
2023-03-04T02:34:17.032Z,149197.31
2023-03-04T02:36:45.708Z,149191.03
2023-03-04T02:39:20.588Z,149189.78
2023-03-04T02:41:47.969Z,149230.00
2023-03-04T02:44:26.304Z,149222.47
2023-03-04T02:46:53.213Z,149245.09
2023-03-04T02:49:20.197Z,149255.19
2023-03-04T02:51:46.288Z,149228.75
2023-03-04T02:54:21.372Z,149214.91
2023-03-04T02:56:50.399Z,149222.47
2023-03-04T02:59:18.031Z,149240.09
2023-03-04T03:01:45.878Z,149237.56
2023-03-04T03:04:12.255Z,149240.09
2023-03-04T03:06:40.532Z,149231.25
2023-03-04T03:09:16.214Z,149233.78
2023-03-04T03:11:42.231Z,149255.19
2023-03-04T03:14:08.146Z,149227.50
2023-03-04T03:16:34.353Z,149235.06
2023-03-04T03:19:00.347Z,149227.50
2023-03-04T03:21:26.438Z,149245.09
2023-03-04T03:23:52.398Z,149227.50
2023-03-04T03:26:18.709Z,149231.25
2023-03-04T03:28:44.663Z,149261.44
2023-03-04T03:31:10.745Z,149241.34
2023-03-04T03:33:36.810Z,149257.69
2023-03-04T03:36:03.099Z,149250.13
2023-03-04T03:38:29.326Z,149232.50
2023-03-04T03:40:55.334Z,149228.75
2023-03-04T03:43:21.221Z,149240.09
2023-03-04T03:45:47.256Z,149211.16
2023-03-04T03:48:13.135Z,149211.16
2023-03-04T03:50:39.018Z,149198.63
2023-03-04T03:53:05.209Z,149297.91
2023-03-04T03:55:31.347Z,149255.19
2023-03-04T03:57:57.252Z,149227.50
2023-03-04T04:00:23.111Z,149251.38
2023-03-04T04:02:49.119Z,149223.75
2023-03-04T04:05:15.303Z,149225.00
2023-03-04T04:07:41.327Z,149243.84
2023-03-04T04:10:07.890Z,149235.06
2023-03-04T04:12:34.000Z,149232.50
2023-03-04T04:15:00.103Z,149252.69
2023-03-04T04:17:26.216Z,149223.75
2023-03-04T04:19:52.092Z,149248.88
2023-03-04T04:22:20.251Z,149211.16
2023-03-04T04:24:46.754Z,149217.47
2023-03-04T04:27:13.292Z,149214.91
2023-03-04T04:29:39.571Z,149240.09
2023-03-04T04:32:05.798Z,149251.38
2023-03-04T04:34:31.600Z,149222.47
2023-03-04T04:36:57.441Z,149225.00
2023-03-04T04:39:23.328Z,149222.47
2023-03-04T04:41:49.326Z,149218.72
2023-03-04T04:44:15.239Z,149223.75
2023-03-04T04:46:41.846Z,149235.06
2023-03-04T04:49:08.284Z,149202.38
2023-03-04T04:51:36.125Z,149213.66
2023-03-04T04:54:02.997Z,149203.63
2023-03-04T04:56:29.263Z,149209.91
2023-03-04T04:59:00.626Z,149245.09
2023-03-04T05:01:27.339Z,149214.91
2023-03-04T05:03:54.626Z,149248.88
2023-03-04T05:06:23.022Z,149243.84
2023-03-04T05:08:49.544Z,149242.59
2023-03-04T05:11:17.140Z,149243.84
2023-03-04T05:13:42.963Z,149247.63
2023-03-04T05:16:09.553Z,149250.13
2023-03-04T05:18:35.432Z,149236.31
2023-03-04T05:21:02.953Z,149246.34
2023-03-04T05:23:32.044Z,149268.97
2023-03-04T05:25:57.874Z,149251.38
2023-03-04T05:28:23.733Z,149245.09
2023-03-04T05:30:49.875Z,149255.19
2023-03-04T05:33:17.664Z,149251.38
2023-03-04T05:35:44.941Z,149227.50
2023-03-04T05:38:19.578Z,149203.63
2023-03-04T05:40:46.884Z,149230.00
2023-03-04T05:43:13.276Z,149233.78
2023-03-04T05:45:40.160Z,149248.88
2023-03-04T05:48:06.592Z,149252.69
2023-03-04T05:50:32.677Z,149218.72
2023-03-04T05:52:59.675Z,149240.09
2023-03-04T05:55:27.062Z,149222.47
2023-03-04T05:57:53.208Z,149226.25
2023-03-04T06:00:19.184Z,149209.91
2023-03-04T06:02:45.099Z,149230.00
2023-03-04T06:05:13.477Z,149241.34
2023-03-04T06:07:39.350Z,149228.75
2023-03-04T06:10:06.349Z,149225.00
2023-03-04T06:12:32.145Z,149230.00
2023-03-04T06:14:58.066Z,149218.72
2023-03-04T06:17:23.833Z,149240.09
2023-03-04T06:19:49.644Z,149248.88
2023-03-04T06:22:15.476Z,149233.78
2023-03-04T06:24:41.286Z,149255.19
2023-03-04T06:27:07.355Z,149243.84
2023-03-04T06:29:33.246Z,149258.94
2023-03-04T06:31:59.241Z,149268.97
2023-03-04T06:34:25.182Z,149261.44
2023-03-04T06:36:50.955Z,149266.47
2023-03-04T06:39:16.889Z,149294.16
2023-03-04T06:41:42.799Z,149266.47
2023-03-04T06:44:08.730Z,149248.88
2023-03-04T06:46:35.249Z,149238.84
2023-03-04T06:49:01.284Z,149257.69
2023-03-04T06:51:27.271Z,149252.69
2023-03-04T06:53:53.133Z,149240.09
2023-03-04T06:56:19.045Z,149255.19
2023-03-04T06:58:45.441Z,149261.44
2023-03-04T07:01:12.278Z,149257.69
2023-03-04T07:03:38.114Z,149253.94
2023-03-04T07:06:04.073Z,149258.94
2023-03-04T07:08:29.955Z,149265.22
2023-03-04T07:10:55.773Z,149251.38
2023-03-04T07:13:21.736Z,149265.22
2023-03-04T07:15:47.669Z,149262.69
2023-03-04T07:18:13.512Z,149257.69
2023-03-04T07:20:39.390Z,149284.06
2023-03-04T07:23:05.276Z,149281.56
2023-03-04T07:25:31.091Z,149262.69
2023-03-04T07:27:56.950Z,149253.94
2023-03-04T07:30:22.966Z,149265.22
2023-03-04T07:32:48.890Z,149277.81
2023-03-04T07:35:14.807Z,149253.94
2023-03-04T07:37:40.664Z,149262.69
2023-03-04T07:40:08.155Z,149255.19
2023-03-04T07:42:34.036Z,149257.69
2023-03-04T07:45:01.156Z,149277.81
2023-03-04T07:47:27.537Z,149276.53
2023-03-04T07:49:53.855Z,149282.81
2023-03-04T07:52:19.801Z,149276.53
2023-03-04T07:54:45.778Z,149287.88
2023-03-04T07:57:11.680Z,149277.81
2023-03-04T07:59:37.563Z,149304.19
2023-03-04T08:02:03.497Z,149320.53
2023-03-04T08:04:29.634Z,149309.25
2023-03-04T08:06:55.567Z,149310.50
2023-03-04T08:09:22.120Z,149304.19
2023-03-04T08:11:47.945Z,149311.75
2023-03-04T08:14:14.323Z,149340.66
2023-03-04T08:16:40.866Z,149333.13
2023-03-04T08:19:07.331Z,149329.38
2023-03-04T08:21:33.671Z,149329.38
2023-03-04T08:24:07.331Z,149343.22
2023-03-04T08:26:41.191Z,149345.72
2023-03-04T08:29:08.527Z,149355.75
2023-03-04T08:31:34.630Z,149343.22
2023-03-04T08:34:03.163Z,149310.50
2023-03-04T08:36:29.053Z,149345.72
2023-03-04T08:38:54.905Z,149338.16
2023-03-04T08:41:22.068Z,149326.88
2023-03-04T08:43:48.137Z,149318.03
2023-03-04T08:46:14.065Z,149310.50
2023-03-04T08:48:40.083Z,149364.59
2023-03-04T08:51:10.316Z,149390.97
2023-03-04T08:53:37.345Z,149403.56
2023-03-04T08:56:04.524Z,149421.19
2023-03-04T08:58:30.512Z,149424.94
2023-03-04T09:00:59.308Z,149403.56
2023-03-04T09:03:25.815Z,149403.56
2023-03-04T09:05:51.847Z,149465.19
2023-03-04T09:08:18.017Z,149447.59
2023-03-04T09:10:45.467Z,149463.94
2023-03-04T09:13:12.023Z,149457.66
2023-03-04T09:15:44.011Z,149504.25
2023-03-04T09:18:10.048Z,149557.09
2023-03-04T09:20:36.230Z,149577.25
2023-03-04T09:23:05.125Z,149575.97
2023-03-04T09:25:31.544Z,149547.03
2023-03-04T09:27:57.494Z,149554.56
2023-03-04T09:30:23.429Z,149572.16
2023-03-04T09:32:49.314Z,149650.25
2023-03-04T09:35:16.477Z,149686.75
2023-03-04T09:37:42.419Z,149715.69
2023-03-04T09:40:15.466Z,149743.41
2023-03-04T09:42:49.581Z,149750.97
2023-03-04T09:45:21.445Z,149744.69
2023-03-04T09:47:50.346Z,149744.69
2023-03-04T09:50:17.408Z,149674.16
2023-03-04T09:53:25.044Z,149684.25
2023-03-04T09:55:52.237Z,149664.09
2023-03-04T09:58:36.313Z,149698.06
2023-03-04T10:01:11.329Z,149781.19
2023-03-04T10:03:51.206Z,149739.66
2023-03-04T10:06:20.251Z,149729.56
2023-03-04T10:09:04.383Z,149723.28
2023-03-04T10:11:44.753Z,149665.38
2023-03-04T10:14:22.999Z,149698.06
2023-03-04T10:17:30.339Z,149657.78
2023-03-04T10:20:06.436Z,149652.75
2023-03-04T10:22:36.579Z,149666.63
2023-03-04T10:25:25.910Z,149636.38
2023-03-04T10:28:02.230Z,149641.41
2023-03-04T10:31:09.344Z,149655.28
2023-03-04T10:33:38.042Z,149626.31
2023-03-04T10:36:25.367Z,149573.44
2023-03-04T10:39:10.071Z,149589.78
2023-03-04T10:41:36.907Z,149583.50
2023-03-04T10:44:08.768Z,149579.75
2023-03-04T10:46:41.687Z,149577.25
2023-03-04T10:49:10.241Z,149608.66
2023-03-04T10:51:46.504Z,149640.16
2023-03-04T10:54:33.064Z,149647.75
2023-03-04T10:57:05.195Z,149643.91
2023-03-04T10:59:47.176Z,149650.25
2023-03-04T11:02:34.939Z,149642.66
2023-03-04T11:05:16.872Z,149636.38
2023-03-04T11:07:55.657Z,149640.16
2023-03-04T11:10:37.895Z,149616.25
2023-03-04T11:13:19.616Z,149606.16
2023-03-04T11:15:56.270Z,149579.75
2023-03-04T11:18:33.215Z,149623.78
2023-03-04T11:21:00.463Z,149621.28
2023-03-04T11:23:50.324Z,149645.19
2023-03-04T11:26:21.240Z,149628.84
2023-03-04T11:28:59.953Z,149621.28
2023-03-04T11:31:37.696Z,149641.41
2023-03-04T11:34:28.304Z,149650.25
2023-03-04T11:37:04.385Z,149689.28
2023-03-04T11:39:56.005Z,149701.88
2023-03-04T11:42:45.276Z,149669.13
2023-03-04T11:45:27.849Z,149631.38
2023-03-04T11:48:10.989Z,149611.22
2023-03-04T11:51:07.785Z,149608.66
2023-03-04T11:53:42.862Z,149613.75
2023-03-04T11:56:47.823Z,149583.50
2023-03-04T11:59:33.141Z,149609.97
2023-03-04T12:02:11.897Z,149613.75
2023-03-04T12:04:43.909Z,149588.53
2023-03-04T12:07:22.828Z,149612.50
2023-03-04T12:10:13.722Z,149633.88
2023-03-04T12:13:07.613Z,149603.66
2023-03-04T12:15:59.578Z,149596.13
2023-03-04T12:18:49.674Z,149618.75
2023-03-04T12:21:33.037Z,149617.50
2023-03-04T12:23:59.034Z,149645.19
2023-03-04T12:26:54.051Z,149642.66
2023-03-04T12:29:47.415Z,149656.53
2023-03-04T12:32:34.736Z,149666.63
2023-03-04T12:35:22.086Z,149669.13
2023-03-04T12:38:23.530Z,149709.41
2023-03-04T12:40:55.600Z,149747.19
2023-03-04T12:43:26.596Z,149714.44
2023-03-04T12:46:19.178Z,149728.31
2023-03-04T12:49:25.303Z,149738.41
2023-03-04T12:52:14.388Z,149714.44
2023-03-04T12:54:51.020Z,149723.28
2023-03-04T12:57:20.634Z,149683.00
2023-03-04T13:00:02.950Z,149683.00
2023-03-04T13:02:31.661Z,149679.19
2023-03-04T13:05:18.488Z,149683.00
2023-03-04T13:07:56.263Z,149705.66
2023-03-04T13:10:25.432Z,149708.16
2023-03-04T13:12:57.292Z,149695.56
2023-03-04T13:15:23.896Z,149694.28
2023-03-04T13:17:54.634Z,149675.41
2023-03-04T13:20:33.546Z,149725.78
2023-03-04T13:23:03.685Z,149698.06
2023-03-04T13:25:44.627Z,149714.44
2023-03-04T13:28:22.836Z,149713.19
2023-03-04T13:30:53.247Z,149719.50
2023-03-04T13:33:42.206Z,149711.94
2023-03-04T13:36:28.846Z,149708.16
2023-03-04T13:39:25.951Z,149694.28
2023-03-04T13:41:56.863Z,149674.16
2023-03-04T13:44:44.025Z,149688.00
2023-03-04T13:47:21.813Z,149676.66
2023-03-04T13:49:47.929Z,149662.81
2023-03-04T13:52:39.838Z,149661.56
2023-03-04T13:55:33.287Z,149647.75
2023-03-04T13:57:59.929Z,149669.13
2023-03-04T14:00:27.683Z,149655.28
2023-03-04T14:02:53.635Z,149670.38
2023-03-04T14:05:19.495Z,149656.53
2023-03-04T14:07:45.506Z,149654.03
2023-03-04T14:10:11.342Z,149672.91
2023-03-04T14:12:51.168Z,149667.88
2023-03-04T14:15:31.276Z,149662.81
2023-03-04T14:17:59.400Z,149688.00
2023-03-04T14:20:27.141Z,149688.00
2023-03-04T14:22:53.749Z,149701.88
2023-03-04T14:25:26.450Z,149685.50
2023-03-04T14:28:04.775Z,149713.19
2023-03-04T14:30:42.176Z,149698.06
2023-03-04T14:33:15.621Z,149675.41
2023-03-04T14:35:47.607Z,149693.03
2023-03-04T14:38:22.500Z,149693.03
2023-03-04T14:40:55.049Z,149683.00
2023-03-04T14:43:23.247Z,149700.63
2023-03-04T14:45:52.653Z,149679.19
2023-03-04T14:48:24.697Z,149665.38
2023-03-04T14:50:52.538Z,149680.44
2023-03-04T14:53:21.261Z,149686.75
2023-03-04T14:56:00.416Z,149688.00
2023-03-04T14:58:34.117Z,149710.66
2023-03-04T15:01:07.557Z,149722.03
2023-03-04T15:03:34.830Z,149744.69
2023-03-04T15:06:19.685Z,149757.28
2023-03-04T15:08:58.627Z,149747.19
2023-03-04T15:11:29.015Z,149723.28
2023-03-04T15:13:56.731Z,149730.81
2023-03-04T15:16:25.581Z,149753.50
2023-03-04T15:19:22.550Z,149732.06
2023-03-04T15:21:48.497Z,149695.56
2023-03-04T15:24:14.652Z,149669.13
2023-03-04T15:26:42.940Z,149667.88
2023-03-04T15:29:18.819Z,149674.16
2023-03-04T15:31:47.754Z,149685.50
2023-03-04T15:34:19.312Z,149719.50
2023-03-04T15:36:48.865Z,149698.06
2023-03-04T15:39:17.137Z,149713.19
2023-03-04T15:41:45.755Z,149700.63
2023-03-04T15:44:12.498Z,149690.53
2023-03-04T15:46:38.902Z,149710.66
2023-03-04T15:49:05.438Z,149715.69
2023-03-04T15:51:31.357Z,149695.56
2023-03-04T15:53:59.092Z,149711.94
2023-03-04T15:56:28.075Z,149695.56
2023-03-04T15:59:00.749Z,149680.44
2023-03-04T16:01:27.210Z,149690.53
2023-03-04T16:03:53.893Z,149701.88
2023-03-04T16:06:25.883Z,149708.16
2023-03-04T16:08:51.976Z,149691.78
2023-03-04T16:11:26.268Z,149688.00
2023-03-04T16:13:52.974Z,149700.63
2023-03-04T16:16:19.613Z,149710.66
2023-03-04T16:18:45.548Z,149718.25
2023-03-04T16:21:14.876Z,149703.13
2023-03-04T16:23:42.966Z,149700.63
2023-03-04T16:26:14.549Z,149699.38
2023-03-04T16:28:40.936Z,149701.88
2023-03-04T16:31:07.307Z,149680.44
2023-03-04T16:33:33.237Z,149691.78
2023-03-04T16:35:59.319Z,149693.03
2023-03-04T16:38:33.434Z,149715.69
2023-03-04T16:41:03.156Z,149665.38
2023-03-04T16:43:29.155Z,149674.16
2023-03-04T16:45:55.150Z,149667.88
2023-03-04T16:48:21.154Z,149651.50
2023-03-04T16:50:47.046Z,149650.25
2023-03-04T16:53:34.091Z,149671.66
2023-03-04T16:56:04.969Z,149675.41
2023-03-04T16:58:30.809Z,149645.19
2023-03-04T17:00:57.040Z,149664.09
2023-03-04T17:03:23.138Z,149670.38
2023-03-04T17:05:49.137Z,149652.75
2023-03-04T17:08:15.179Z,149652.75
2023-03-04T17:10:41.346Z,149631.38
2023-03-04T17:13:08.102Z,149646.47
2023-03-04T17:15:34.335Z,149650.25
2023-03-04T17:18:00.313Z,149628.84
2023-03-04T17:20:26.218Z,149609.97
2023-03-04T17:22:52.737Z,149628.84
2023-03-04T17:25:18.731Z,149623.78
2023-03-04T17:27:44.698Z,149649.00
2023-03-04T17:30:11.858Z,149620.03
2023-03-04T17:32:39.192Z,149616.25
2023-03-04T17:35:07.345Z,149637.66
2023-03-04T17:37:34.800Z,149611.22
2023-03-04T17:40:02.878Z,149628.84
2023-03-04T17:42:29.072Z,149637.66
2023-03-04T17:44:54.939Z,149620.03
2023-03-04T17:47:20.999Z,149616.25
2023-03-04T17:49:46.975Z,149604.91
2023-03-04T17:52:13.116Z,149612.50
2023-03-04T17:54:39.246Z,149616.25
2023-03-04T17:57:05.922Z,149622.53
2023-03-04T17:59:31.985Z,149607.41
2023-03-04T18:02:02.694Z,149612.50
2023-03-04T18:04:28.641Z,149643.91
2023-03-04T18:06:54.578Z,149628.84
2023-03-04T18:09:20.454Z,149620.03
2023-03-04T18:11:46.492Z,149616.25
2023-03-04T18:14:12.573Z,149615.00
2023-03-04T18:16:39.724Z,149628.84
2023-03-04T18:19:05.812Z,149606.16
2023-03-04T18:21:31.983Z,149599.88
2023-03-04T18:23:58.546Z,149597.38
2023-03-04T18:26:26.182Z,149599.88
2023-03-04T18:28:53.457Z,149606.16
2023-03-04T18:31:20.911Z,149620.03
2023-03-04T18:33:47.295Z,149606.16
2023-03-04T18:36:14.209Z,149589.78
2023-03-04T18:38:40.584Z,149589.78
2023-03-04T18:41:12.491Z,149587.28
2023-03-04T18:43:38.962Z,149587.28
2023-03-04T18:46:26.083Z,149581.00
2023-03-04T18:48:55.677Z,149592.34
2023-03-04T18:51:21.662Z,149594.88
2023-03-04T18:53:47.556Z,149592.34
2023-03-04T18:56:19.402Z,149589.78
2023-03-04T18:58:48.835Z,149593.59
2023-03-04T19:01:16.680Z,149574.72
2023-03-04T19:03:43.676Z,149592.34
2023-03-04T19:06:10.152Z,149598.63
2023-03-04T19:08:36.045Z,149573.44
2023-03-04T19:11:02.072Z,149572.16
2023-03-04T19:13:30.664Z,149583.50
2023-03-04T19:15:56.646Z,149584.78
2023-03-04T19:18:22.542Z,149621.28
2023-03-04T19:20:48.420Z,149608.66
2023-03-04T19:23:14.995Z,149611.22
2023-03-04T19:25:41.971Z,149601.13
2023-03-04T19:28:08.748Z,149574.72
2023-03-04T19:30:40.214Z,149586.03
2023-03-04T19:33:06.611Z,149554.56
2023-03-04T19:35:33.016Z,149547.03
2023-03-04T19:38:13.838Z,149530.66
2023-03-04T19:40:46.035Z,149562.13
2023-03-04T19:43:13.632Z,149539.47
2023-03-04T19:45:42.588Z,149518.06
2023-03-04T19:48:08.949Z,149555.81
2023-03-04T19:50:37.133Z,149544.50
2023-03-04T19:53:03.136Z,149508.00
2023-03-04T19:55:29.160Z,149529.41
2023-03-04T19:57:55.146Z,149482.81
2023-03-04T20:00:24.911Z,149497.94
2023-03-04T20:02:51.378Z,149559.63
2023-03-04T20:05:17.470Z,149506.75
2023-03-04T20:07:46.202Z,149503.00
2023-03-04T20:10:13.712Z,149526.88
2023-03-04T20:12:39.525Z,149529.41
2023-03-04T20:15:07.469Z,149489.16
2023-03-04T20:17:33.376Z,149489.16
2023-03-04T20:19:59.352Z,149505.50
2023-03-04T20:22:25.275Z,149487.88
2023-03-04T20:24:54.107Z,149484.06
2023-03-04T20:27:20.258Z,149467.75
2023-03-04T20:29:48.232Z,149470.28
2023-03-04T20:32:14.137Z,149494.16
2023-03-04T20:34:39.979Z,149487.88
2023-03-04T20:37:08.804Z,149457.66
2023-03-04T20:39:34.844Z,149453.91
2023-03-04T20:42:00.790Z,149471.53
2023-03-04T20:44:27.238Z,149452.66
2023-03-04T20:46:56.304Z,149475.28
2023-03-04T20:49:25.240Z,149475.28
2023-03-04T20:51:53.428Z,149463.94
2023-03-04T20:54:19.884Z,149452.66
2023-03-04T20:56:51.778Z,149443.81
2023-03-04T20:59:17.830Z,149432.53
2023-03-04T21:01:47.178Z,149441.31
2023-03-04T21:04:13.488Z,149455.16
2023-03-04T21:06:39.887Z,149466.50
2023-03-04T21:09:09.474Z,149460.19
2023-03-04T21:11:39.635Z,149463.94
2023-03-04T21:14:23.844Z,149461.44
2023-03-04T21:16:52.413Z,149458.94
2023-03-04T21:19:21.491Z,149470.28
2023-03-04T21:21:49.184Z,149461.44
2023-03-04T21:24:19.199Z,149452.66
2023-03-04T21:26:46.975Z,149458.94
2023-03-04T21:29:18.254Z,149436.28
2023-03-04T21:31:51.221Z,149432.53
2023-03-04T21:34:21.384Z,149429.97
2023-03-04T21:36:47.933Z,149418.69
2023-03-04T21:39:20.248Z,149446.34
2023-03-04T21:41:46.389Z,149450.16
2023-03-04T21:44:22.582Z,149480.31
2023-03-04T21:46:59.042Z,149448.88
2023-03-04T21:49:25.540Z,149424.94
2023-03-04T21:51:51.590Z,149419.94
2023-03-04T21:54:17.816Z,149426.22
2023-03-04T21:56:43.733Z,149431.28
2023-03-04T21:59:12.638Z,149428.72
2023-03-04T22:01:39.324Z,149427.47
2023-03-04T22:04:05.685Z,149409.84
2023-03-04T22:06:32.997Z,149390.97
2023-03-04T22:09:00.701Z,149421.19
2023-03-04T22:11:27.494Z,149438.81
2023-03-04T22:13:55.268Z,149423.69
2023-03-04T22:16:21.856Z,149397.31
2023-03-04T22:18:47.910Z,149392.25
2023-03-04T22:21:16.867Z,149416.16
2023-03-04T22:23:43.205Z,149399.81
2023-03-04T22:26:26.137Z,149383.47
2023-03-04T22:28:52.064Z,149364.59
2023-03-04T22:31:30.022Z,149379.69
2023-03-04T22:34:03.910Z,149367.09
2023-03-04T22:36:33.786Z,149357.00
2023-03-04T22:39:01.351Z,149353.25
2023-03-04T22:41:27.734Z,149360.81
2023-03-04T22:43:53.629Z,149360.81
2023-03-04T22:46:28.753Z,149355.75
2023-03-04T22:48:59.969Z,149325.59
2023-03-04T22:51:26.583Z,149331.88
2023-03-04T22:53:53.220Z,149324.34
2023-03-04T22:56:19.649Z,149321.78
2023-03-04T22:58:46.592Z,149326.88
2023-03-04T23:01:14.437Z,149331.88
2023-03-04T23:03:42.553Z,149300.44
2023-03-04T23:06:10.862Z,149300.44
2023-03-04T23:08:38.786Z,149310.50
2023-03-04T23:11:34.485Z,149318.03
2023-03-04T23:14:04.294Z,149310.50
2023-03-04T23:16:30.379Z,149315.53
2023-03-04T23:18:59.193Z,149294.16
2023-03-04T23:21:27.301Z,149326.88
2023-03-04T23:23:53.262Z,149338.16
2023-03-04T23:26:25.534Z,149262.69
2023-03-04T23:28:51.533Z,149280.31
2023-03-04T23:31:18.407Z,149285.31
2023-03-04T23:33:46.798Z,149277.81
2023-03-04T23:36:15.706Z,149272.78
2023-03-04T23:38:47.401Z,149272.78
2023-03-04T23:41:15.891Z,149255.19
2023-03-04T23:43:42.003Z,149261.44
2023-03-04T23:46:11.006Z,149271.53
2023-03-04T23:48:38.183Z,149271.53
2023-03-04T23:51:04.516Z,149265.22
2023-03-04T23:53:30.697Z,149263.97
2023-03-04T23:55:56.523Z,149266.47
2023-03-04T23:58:22.541Z,149285.31
